createdAt,value
2019-05-18T00:01:18.250Z,71.67
2019-05-18T00:03:48.108Z,72.35
2019-05-18T00:06:16.623Z,68.62
2019-05-18T00:08:45.069Z,75.78
2019-05-18T00:11:13.553Z,75.57
2019-05-18T00:13:42.231Z,76.37
2019-05-18T00:16:10.741Z,77.53
2019-05-18T00:18:39.224Z,74.70
2019-05-18T00:21:07.820Z,74.15
2019-05-18T00:23:36.339Z,77.53
2019-05-18T00:26:04.820Z,86.90
2019-05-18T00:28:33.684Z,84.13
2019-05-18T00:31:02.147Z,81.37
2019-05-18T00:33:30.784Z,82.47
2019-05-18T00:35:59.289Z,86.53
2019-05-18T00:38:27.755Z,75.83
2019-05-18T00:40:56.317Z,71.42
2019-05-18T00:43:24.921Z,67.12
2019-05-18T00:45:53.382Z,69.82
2019-05-18T00:48:21.925Z,62.95
2019-05-18T00:50:50.373Z,87.27
2019-05-18T00:53:18.820Z,74.75
2019-05-18T00:55:47.308Z,93.35
2019-05-18T00:58:15.833Z,75.50
2019-05-18T01:00:44.436Z,92.12
2019-05-18T01:03:12.911Z,81.70
2019-05-18T01:05:41.402Z,72.75
2019-05-18T01:08:09.982Z,76.28
2019-05-18T01:10:38.480Z,89.07
2019-05-18T01:13:07.001Z,100.82
2019-05-18T01:15:35.447Z,95.42
2019-05-18T01:18:04.020Z,99.15
2019-05-18T01:20:32.620Z,90.65
2019-05-18T01:23:01.078Z,89.80
2019-05-18T01:25:29.719Z,91.55
2019-05-18T01:27:58.168Z,77.40
2019-05-18T01:30:26.918Z,62.65
2019-05-18T01:32:55.397Z,63.13
2019-05-18T01:35:24.026Z,58.38
2019-05-18T01:37:52.537Z,57.88
2019-05-18T01:40:21.659Z,69.97
2019-05-18T01:42:50.250Z,86.22
2019-05-18T01:45:18.958Z,93.47
2019-05-18T01:47:47.469Z,103.70
2019-05-18T01:50:16.053Z,94.13
2019-05-18T01:52:44.514Z,107.32
2019-05-18T01:55:13.327Z,100.70
2019-05-18T01:57:41.771Z,96.65
2019-05-18T02:00:12.129Z,97.45
2019-05-18T02:02:40.830Z,100.22
2019-05-18T02:05:09.678Z,100.42
2019-05-18T02:07:38.192Z,96.32
2019-05-18T02:10:10.168Z,87.30
2019-05-18T02:12:38.609Z,82.10
2019-05-18T02:15:08.978Z,90.32
2019-05-18T02:17:39.141Z,92.70
2019-05-18T02:20:08.332Z,86.47
2019-05-18T02:22:36.792Z,85.57
2019-05-18T02:25:07.361Z,79.72
2019-05-18T02:27:35.817Z,82.70
2019-05-18T02:30:06.713Z,82.33
2019-05-18T02:32:36.395Z,88.30
2019-05-18T02:37:34.069Z,58.63
2019-05-18T02:40:02.631Z,67.62
2019-05-18T02:42:31.433Z,73.25
2019-05-18T02:45:00.019Z,93.12
2019-05-18T02:47:28.502Z,88.95
2019-05-18T02:49:57.043Z,85.40
2019-05-18T02:52:25.498Z,95.72
2019-05-18T02:54:53.969Z,97.02
2019-05-18T02:57:22.418Z,93.00
2019-05-18T02:59:50.865Z,83.75
2019-05-18T03:02:19.423Z,96.50
2019-05-18T03:04:47.887Z,96.85
2019-05-18T03:07:16.406Z,92.00
2019-05-18T03:09:44.961Z,88.30
2019-05-18T03:12:13.558Z,94.45
2019-05-18T03:14:42.000Z,99.42
2019-05-18T03:17:10.483Z,94.58
2019-05-18T03:19:39.084Z,87.40
2019-05-18T03:22:07.604Z,86.90
2019-05-18T03:24:36.097Z,90.45
2019-05-18T03:27:04.638Z,89.47
2019-05-18T03:29:33.213Z,99.80
2019-05-18T03:32:01.782Z,112.22
2019-05-18T03:34:30.510Z,111.17
2019-05-18T03:36:59.022Z,108.47
2019-05-18T03:39:27.494Z,93.37
2019-05-18T03:41:55.949Z,91.08
2019-05-18T03:44:24.395Z,86.87
2019-05-18T03:46:52.873Z,92.95
2019-05-18T03:49:27.099Z,97.67
2019-05-18T03:51:51.493Z,122.92
2019-05-18T03:54:19.980Z,108.75
2019-05-18T03:56:48.475Z,100.00
2019-05-18T03:59:36.351Z,88.10
2019-05-18T04:02:05.019Z,87.55
2019-05-18T04:04:33.466Z,91.92
2019-05-18T04:07:01.978Z,100.70
2019-05-18T04:09:30.487Z,98.37
2019-05-18T04:11:59.010Z,100.87
2019-05-18T04:14:27.497Z,93.60
2019-05-18T04:16:58.741Z,97.95
2019-05-18T04:19:44.884Z,97.02
2019-05-18T04:21:57.381Z,107.20
2019-05-18T04:24:25.841Z,94.32
2019-05-18T04:26:54.290Z,72.70
2019-05-18T04:29:22.796Z,66.70
2019-05-18T04:31:51.249Z,71.75
2019-05-18T04:34:19.712Z,70.30
2019-05-18T04:36:48.490Z,85.77
2019-05-18T04:39:16.963Z,90.47
2019-05-18T04:41:45.467Z,97.47
2019-05-18T04:44:14.010Z,108.25
2019-05-18T04:46:42.460Z,96.60
2019-05-18T04:49:10.910Z,78.67
2019-05-18T04:51:39.385Z,86.92
2019-05-18T04:54:07.842Z,112.62
2019-05-18T04:56:36.296Z,108.67
2019-05-18T04:59:04.954Z,105.27
2019-05-18T05:01:33.558Z,107.60
2019-05-18T05:04:02.077Z,90.35
2019-05-18T05:06:30.611Z,101.50
2019-05-18T05:08:59.059Z,81.47
2019-05-18T05:11:27.526Z,86.42
2019-05-18T05:13:56.012Z,84.17
2019-05-18T05:16:24.536Z,74.12
2019-05-18T05:18:52.984Z,69.65
2019-05-18T05:21:21.510Z,75.60
2019-05-18T05:23:49.979Z,68.83
2019-05-18T05:26:18.421Z,57.03
2019-05-18T05:28:46.921Z,58.35
2019-05-18T05:31:15.375Z,52.08
2019-05-18T05:33:43.843Z,47.53
2019-05-18T05:36:12.382Z,50.20
2019-05-18T05:38:41.201Z,50.03
2019-05-18T05:41:13.032Z,50.55
2019-05-18T05:43:39.929Z,46.42
2019-05-18T05:46:08.380Z,47.98
2019-05-18T05:48:36.831Z,44.30
2019-05-18T05:51:05.401Z,45.00
2019-05-18T05:53:36.569Z,43.68
2019-05-18T05:56:05.012Z,46.68
2019-05-18T05:58:34.015Z,47.60
2019-05-18T06:01:02.520Z,44.35
2019-05-18T06:03:31.037Z,39.65
2019-05-18T06:05:59.537Z,32.93
2019-05-18T06:08:28.067Z,36.35
2019-05-18T06:10:56.853Z,30.72
2019-05-18T06:13:25.360Z,31.40
2019-05-18T06:15:53.882Z,32.28
2019-05-18T06:18:22.469Z,30.50
2019-05-18T06:20:52.114Z,32.23
2019-05-18T06:23:20.757Z,33.38
2019-05-18T06:25:49.232Z,35.05
2019-05-18T06:28:17.805Z,33.42
2019-05-18T06:30:46.395Z,35.38
2019-05-18T06:33:34.218Z,34.20
2019-05-18T06:36:02.682Z,32.98
2019-05-18T06:38:31.145Z,33.35
2019-05-18T06:40:59.905Z,30.17
2019-05-18T06:43:28.420Z,32.30
2019-05-18T06:45:56.959Z,31.35
2019-05-18T06:48:25.540Z,31.65
2019-05-18T06:51:06.285Z,31.23
2019-05-18T06:53:24.608Z,30.70
2019-05-18T06:55:55.534Z,33.23
2019-05-18T06:58:25.261Z,30.20
2019-05-18T07:00:53.801Z,30.05
2019-05-18T07:03:22.774Z,27.82
2019-05-18T07:05:51.455Z,21.20
2019-05-18T07:08:20.153Z,20.87
2019-05-18T07:10:48.796Z,22.70
2019-05-18T07:13:17.320Z,20.60
2019-05-18T07:15:45.896Z,17.52
2019-05-18T07:18:14.683Z,21.80
2019-05-18T07:20:43.269Z,21.65
2019-05-18T07:23:11.762Z,18.27
2019-05-18T07:25:40.399Z,18.80
2019-05-18T07:28:11.776Z,19.57
2019-05-18T07:30:40.470Z,18.52
2019-05-18T07:33:09.223Z,22.80
2019-05-18T07:35:37.864Z,18.75
2019-05-18T07:38:06.496Z,19.20
2019-05-18T07:40:35.114Z,18.97
2019-05-18T07:43:03.763Z,19.57
2019-05-18T07:45:32.452Z,20.10
2019-05-18T07:48:01.072Z,17.37
2019-05-18T07:50:29.619Z,16.25
2019-05-18T07:52:58.240Z,15.70
2019-05-18T07:55:26.892Z,17.32
2019-05-18T07:57:55.387Z,15.55
2019-05-18T08:00:23.984Z,14.05
2019-05-18T08:02:52.507Z,12.77
2019-05-18T08:05:21.051Z,13.70
2019-05-18T08:07:49.624Z,14.15
2019-05-18T08:10:21.186Z,15.70
2019-05-18T08:12:49.643Z,13.93
2019-05-18T08:15:18.329Z,12.85
2019-05-18T08:17:46.868Z,15.37
2019-05-18T08:20:15.460Z,14.73
2019-05-18T08:22:43.901Z,16.30
2019-05-18T08:25:12.662Z,13.50
2019-05-18T08:27:41.300Z,14.20
2019-05-18T08:30:10.211Z,16.03
2019-05-18T08:32:54.104Z,16.05
2019-05-18T08:35:22.595Z,15.32
2019-05-18T08:37:51.033Z,15.68
2019-05-18T08:40:19.738Z,14.28
2019-05-18T08:42:48.238Z,15.30
2019-05-18T08:45:17.228Z,15.18
2019-05-18T08:47:45.704Z,16.05
2019-05-18T08:50:14.305Z,17.60
2019-05-18T08:52:42.960Z,15.88
2019-05-18T08:55:11.584Z,15.23
2019-05-18T08:57:40.031Z,15.40
2019-05-18T09:00:09.115Z,15.68
2019-05-18T09:02:37.732Z,15.90
2019-05-18T09:05:07.000Z,13.57
2019-05-18T09:07:35.576Z,14.78
2019-05-18T09:10:05.894Z,12.50
2019-05-18T09:12:40.792Z,16.02
2019-05-18T09:15:09.920Z,14.18
2019-05-18T09:17:38.745Z,14.65
2019-05-18T09:20:09.404Z,15.32
2019-05-18T09:22:38.126Z,14.00
2019-05-18T09:25:07.261Z,13.62
2019-05-18T09:27:38.572Z,12.68
2019-05-18T09:30:08.524Z,13.75
2019-05-18T09:32:37.574Z,14.98
2019-05-18T09:35:09.468Z,17.47
2019-05-18T09:37:38.092Z,20.10
2019-05-18T09:40:08.035Z,18.80
2019-05-18T09:42:36.481Z,61.42
2019-05-18T09:45:06.983Z,23.52
2019-05-18T09:47:35.928Z,15.15
2019-05-18T09:50:06.481Z,11.35
2019-05-18T09:52:44.845Z,10.40
2019-05-18T09:55:07.585Z,10.68
2019-05-18T09:57:36.110Z,15.28
2019-05-18T10:00:11.179Z,14.37
2019-05-18T10:02:39.766Z,9.20
2019-05-18T10:05:08.838Z,11.23
2019-05-18T10:07:37.414Z,10.15
2019-05-18T10:10:07.693Z,10.38
2019-05-18T10:12:36.197Z,9.58
2019-05-18T10:15:07.219Z,10.08
2019-05-18T10:17:35.680Z,9.45
2019-05-18T10:20:10.076Z,10.00
2019-05-18T10:22:53.497Z,11.83
2019-05-18T10:25:09.828Z,10.00
2019-05-18T10:27:38.272Z,10.55
2019-05-18T10:30:08.579Z,10.77
2019-05-18T10:32:37.021Z,11.28
2019-05-18T10:35:08.563Z,9.33
2019-05-18T10:37:37.187Z,10.40
2019-05-18T10:40:10.234Z,12.33
2019-05-18T10:42:38.764Z,10.58
2019-05-18T10:45:08.258Z,8.90
2019-05-18T10:47:36.702Z,11.08
2019-05-18T10:50:07.245Z,12.43
2019-05-18T10:52:35.943Z,9.35
2019-05-18T10:55:08.818Z,12.50
2019-05-18T10:57:38.869Z,12.15
2019-05-18T11:00:09.440Z,11.00
2019-05-18T11:02:38.019Z,11.30
2019-05-18T11:05:08.859Z,12.50
2019-05-18T11:07:37.474Z,11.57
2019-05-18T11:10:07.930Z,13.07
2019-05-18T11:12:36.440Z,14.73
2019-05-18T11:15:07.948Z,13.70
2019-05-18T11:17:36.461Z,12.80
2019-05-18T11:20:09.130Z,11.83
2019-05-18T11:22:37.666Z,15.40
2019-05-18T11:25:08.353Z,21.20
2019-05-18T11:27:36.933Z,13.48
2019-05-18T11:30:09.777Z,41.83
2019-05-18T11:32:38.561Z,12.93
2019-05-18T11:35:07.851Z,96.17
2019-05-18T11:40:06.442Z,11.25
2019-05-18T11:42:35.043Z,13.40
2019-05-18T11:45:05.352Z,27.82
2019-05-18T11:47:34.947Z,23.35
2019-05-18T11:50:05.591Z,45.60
2019-05-18T11:52:34.460Z,13.43
2019-05-18T11:55:03.158Z,33.10
2019-05-18T11:57:31.615Z,14.35
2019-05-18T12:00:00.087Z,38.40
2019-05-18T12:02:28.549Z,20.00
2019-05-18T12:04:57.198Z,28.52
2019-05-18T12:07:25.749Z,22.32
2019-05-18T12:09:54.264Z,17.30
2019-05-18T12:12:22.716Z,22.10
2019-05-18T12:14:51.198Z,16.73
2019-05-18T12:17:19.654Z,15.90
2019-05-18T12:19:48.107Z,30.37
2019-05-18T12:22:17.091Z,12.93
2019-05-18T12:24:45.529Z,15.35
2019-05-18T12:27:14.052Z,19.05
2019-05-18T12:29:42.535Z,17.17
2019-05-18T12:32:10.975Z,19.95
2019-05-18T12:34:39.425Z,11.45
2019-05-18T12:37:09.878Z,12.00
2019-05-18T12:39:38.393Z,14.33
2019-05-18T12:42:07.660Z,12.75
2019-05-18T12:44:36.481Z,10.50
2019-05-18T12:47:04.959Z,10.78
2019-05-18T12:49:33.458Z,11.63
2019-05-18T12:52:01.936Z,12.07
2019-05-18T12:54:45.584Z,12.18
2019-05-18T12:57:01.650Z,11.28
2019-05-18T12:59:30.123Z,10.90
2019-05-18T13:01:59.029Z,10.45
2019-05-18T13:04:27.473Z,11.50
2019-05-18T13:06:55.954Z,10.82
2019-05-18T13:09:24.448Z,9.90
2019-05-18T13:11:52.963Z,10.82
2019-05-18T13:14:21.438Z,10.40
2019-05-18T13:16:49.882Z,9.70
2019-05-18T13:19:18.330Z,11.53
2019-05-18T13:21:46.809Z,9.43
2019-05-18T13:24:15.249Z,9.10
2019-05-18T13:26:43.701Z,11.68
2019-05-18T13:29:12.171Z,10.10
2019-05-18T13:31:40.617Z,11.57
2019-05-18T13:34:09.066Z,11.35
2019-05-18T13:36:37.568Z,9.45
2019-05-18T13:39:07.854Z,10.82
2019-05-18T13:41:36.374Z,12.45
2019-05-18T13:44:04.928Z,9.68
2019-05-18T13:46:33.393Z,13.68
2019-05-18T13:49:01.906Z,9.33
2019-05-18T13:51:30.477Z,10.65
2019-05-18T13:53:58.925Z,9.70
2019-05-18T13:56:28.388Z,9.75
2019-05-18T13:58:56.936Z,9.80
2019-05-18T14:01:28.223Z,7.92
2019-05-18T14:03:56.728Z,8.88
2019-05-18T14:06:25.261Z,7.40
2019-05-18T14:08:53.705Z,8.83
2019-05-18T14:11:22.919Z,9.08
2019-05-18T14:13:51.407Z,8.73
2019-05-18T14:16:19.928Z,10.45
2019-05-18T14:18:48.376Z,8.60
2019-05-18T14:21:16.918Z,10.53
2019-05-18T14:23:48.271Z,9.05
2019-05-18T14:26:16.705Z,8.08
2019-05-18T14:28:45.190Z,8.98
2019-05-18T14:31:13.637Z,8.85
2019-05-18T14:33:42.073Z,9.05
2019-05-18T14:36:10.551Z,10.25
2019-05-18T14:38:38.993Z,9.28
2019-05-18T14:41:07.510Z,8.58
2019-05-18T14:43:35.979Z,8.75
2019-05-18T14:46:04.498Z,7.85
2019-05-18T14:48:32.933Z,8.40
2019-05-18T14:51:01.429Z,8.33
2019-05-18T14:53:30.026Z,11.33
2019-05-18T14:55:58.471Z,11.80
2019-05-18T14:58:27.260Z,10.78
2019-05-18T15:00:55.837Z,11.70
2019-05-18T15:03:24.345Z,9.88
2019-05-18T15:05:52.909Z,11.73
2019-05-18T15:08:21.361Z,10.23
2019-05-18T15:10:49.805Z,10.93
2019-05-18T15:13:18.289Z,11.85
2019-05-18T15:15:47.273Z,11.88
2019-05-18T15:18:15.803Z,11.68
2019-05-18T15:20:44.321Z,10.65
2019-05-18T15:23:12.893Z,12.05
2019-05-18T15:25:50.212Z,12.18
2019-05-18T15:28:11.752Z,10.08
2019-05-18T15:30:40.289Z,10.10
2019-05-18T15:33:09.162Z,12.43
2019-05-18T15:35:37.778Z,11.10
2019-05-18T15:38:06.441Z,13.00
2019-05-18T15:40:34.882Z,12.00
2019-05-18T15:43:03.610Z,11.53
2019-05-18T15:45:32.272Z,11.15
2019-05-18T15:48:00.720Z,12.58
2019-05-18T15:50:29.269Z,17.93
2019-05-18T15:52:57.841Z,13.83
2019-05-18T15:55:26.376Z,14.83
2019-05-18T15:57:54.921Z,15.70
2019-05-18T16:00:25.401Z,16.30
2019-05-18T16:02:54.252Z,11.85
2019-05-18T16:05:23.005Z,13.18
2019-05-18T16:07:51.705Z,15.40
2019-05-18T16:10:21.692Z,12.95
2019-05-18T16:12:50.166Z,15.32
2019-05-18T16:15:18.777Z,13.88
2019-05-18T16:17:47.344Z,15.88
2019-05-18T16:20:16.073Z,17.97
2019-05-18T16:22:44.713Z,15.60
2019-05-18T16:25:14.607Z,17.05
2019-05-18T16:27:43.254Z,16.55
2019-05-18T16:30:12.243Z,16.70
2019-05-18T16:32:40.723Z,15.13
2019-05-18T16:35:10.786Z,17.13
2019-05-18T16:37:39.861Z,15.90
2019-05-18T16:40:09.258Z,18.98
2019-05-18T16:42:37.942Z,18.67
2019-05-18T16:45:08.522Z,14.40
2019-05-18T16:47:37.068Z,12.50
2019-05-18T16:50:06.947Z,17.60
2019-05-18T16:52:35.534Z,19.25
2019-05-18T16:55:07.928Z,14.40
2019-05-18T16:57:36.594Z,12.45
2019-05-18T17:00:08.200Z,12.97
2019-05-18T17:02:36.965Z,14.28
2019-05-18T17:05:07.278Z,18.73
2019-05-18T17:07:35.805Z,17.45
2019-05-18T17:10:05.795Z,14.05
2019-05-18T17:12:34.310Z,15.18
2019-05-18T17:15:02.879Z,17.20
2019-05-18T17:17:34.866Z,16.53
2019-05-18T17:20:02.012Z,18.90
2019-05-18T17:22:30.471Z,21.17
2019-05-18T17:24:58.990Z,17.30
2019-05-18T17:27:27.665Z,17.52
2019-05-18T17:29:56.234Z,19.10
2019-05-18T17:32:27.804Z,18.30
2019-05-18T17:34:56.616Z,19.70
2019-05-18T17:37:25.164Z,17.98
2019-05-18T17:39:53.689Z,15.63
2019-05-18T17:42:22.209Z,20.92
2019-05-18T17:44:50.780Z,26.93
2019-05-18T17:47:19.556Z,19.45
2019-05-18T17:49:48.101Z,18.00
2019-05-18T17:52:16.616Z,21.50
2019-05-18T17:54:45.237Z,18.82
2019-05-18T17:57:13.912Z,21.77
2019-05-18T17:59:42.450Z,17.23
2019-05-18T18:02:10.894Z,18.23
2019-05-18T18:04:40.662Z,20.35
2019-05-18T18:07:09.449Z,22.98
2019-05-18T18:09:37.974Z,25.57
2019-05-18T18:12:06.650Z,26.65
2019-05-18T18:14:35.125Z,26.47
2019-05-18T18:17:03.662Z,27.55
2019-05-18T18:19:32.156Z,36.98
2019-05-18T18:22:00.597Z,37.38
2019-05-18T18:24:29.055Z,36.03
2019-05-18T18:26:57.687Z,36.98
2019-05-18T18:29:29.226Z,37.20
2019-05-18T18:31:57.773Z,31.50
2019-05-18T18:34:26.419Z,21.35
2019-05-18T18:36:54.926Z,15.90
2019-05-18T18:39:23.439Z,14.83
2019-05-18T18:41:51.948Z,14.33
2019-05-18T18:44:20.578Z,16.48
2019-05-18T18:46:49.124Z,13.90
2019-05-18T18:49:17.682Z,12.00
2019-05-18T18:51:46.195Z,13.70
2019-05-18T18:54:14.666Z,12.20
2019-05-18T18:56:43.234Z,10.90
2019-05-18T18:59:11.693Z,11.22
2019-05-18T19:01:40.211Z,11.30
2019-05-18T19:04:08.856Z,13.33
2019-05-18T19:06:37.808Z,13.57
2019-05-18T19:09:07.031Z,16.73
2019-05-18T19:11:35.577Z,14.33
2019-05-18T19:14:09.163Z,13.00
2019-05-18T19:16:43.873Z,19.67
2019-05-18T19:19:19.381Z,12.85
2019-05-18T19:21:48.037Z,16.35
2019-05-18T19:24:16.802Z,16.83
2019-05-18T19:26:45.280Z,18.20
2019-05-18T19:29:13.920Z,31.57
2019-05-18T19:31:42.767Z,20.65
2019-05-18T19:34:11.256Z,30.30
2019-05-18T19:36:39.926Z,27.40
2019-05-18T19:39:08.520Z,21.73
2019-05-18T19:41:37.121Z,17.07
2019-05-18T19:44:05.763Z,18.70
2019-05-18T19:46:34.320Z,11.03
2019-05-18T19:49:02.831Z,9.38
2019-05-18T19:51:31.375Z,8.93
2019-05-18T19:53:59.884Z,9.55
2019-05-18T19:56:28.330Z,9.38
2019-05-18T19:58:56.881Z,10.40
2019-05-18T20:01:25.405Z,15.20
2019-05-18T20:03:54.060Z,15.20
2019-05-18T20:06:22.525Z,15.85
2019-05-18T20:08:52.021Z,15.35
2019-05-18T20:13:48.324Z,15.63
2019-05-18T20:16:16.859Z,12.03
2019-05-18T20:18:45.375Z,11.40
2019-05-18T20:21:13.865Z,12.13
2019-05-18T20:23:42.308Z,10.40
2019-05-18T20:26:10.764Z,14.78
2019-05-18T20:28:39.321Z,18.82
2019-05-18T20:31:07.840Z,16.65
2019-05-18T20:33:36.359Z,13.05
2019-05-18T20:36:04.838Z,16.50
2019-05-18T20:38:33.282Z,13.62
2019-05-18T20:41:01.720Z,15.53
2019-05-18T20:43:30.204Z,12.90
2019-05-18T20:46:00.189Z,13.50
2019-05-18T20:48:28.630Z,12.50
2019-05-18T20:50:57.111Z,14.47
2019-05-18T20:53:25.563Z,14.10
2019-05-18T20:55:54.011Z,21.97
2019-05-18T20:58:22.549Z,15.85
2019-05-18T21:00:51.088Z,12.63
2019-05-18T21:03:19.759Z,14.98
2019-05-18T21:05:48.363Z,22.40
2019-05-18T21:08:16.926Z,26.17
2019-05-18T21:10:46.086Z,17.02
2019-05-18T21:13:14.561Z,14.78
2019-05-18T21:15:43.010Z,12.63
2019-05-18T21:18:11.479Z,12.75
2019-05-18T21:20:40.363Z,10.55
2019-05-18T21:23:08.881Z,9.70
2019-05-18T21:25:37.321Z,13.22
2019-05-18T21:28:05.860Z,16.23
2019-05-18T21:30:34.305Z,9.63
2019-05-18T21:33:02.756Z,16.82
2019-05-18T21:35:31.235Z,11.75
2019-05-18T21:37:59.674Z,11.65
2019-05-18T21:40:28.134Z,13.78
2019-05-18T21:42:56.669Z,14.80
2019-05-18T21:45:25.114Z,10.70
2019-05-18T21:47:53.559Z,11.68
2019-05-18T21:50:22.041Z,13.00
2019-05-18T21:52:50.485Z,11.40
2019-05-18T21:55:18.934Z,14.85
2019-05-18T21:57:47.415Z,15.32
2019-05-18T22:00:16.368Z,15.25
2019-05-18T22:02:44.820Z,12.60
2019-05-18T22:05:13.452Z,11.38
2019-05-18T22:07:41.893Z,9.33
2019-05-18T22:10:24.816Z,9.60
2019-05-18T22:12:41.363Z,11.63
2019-05-18T22:15:10.362Z,12.40
2019-05-18T22:17:56.781Z,12.18
2019-05-18T22:20:25.419Z,11.05
2019-05-18T22:22:53.895Z,11.47
2019-05-18T22:25:41.779Z,11.50
2019-05-18T22:28:10.458Z,12.58
2019-05-18T22:30:38.999Z,10.20
2019-05-18T22:33:07.674Z,9.93
2019-05-18T22:35:36.206Z,10.53
2019-05-18T22:38:04.742Z,12.65
2019-05-18T22:40:33.333Z,10.80
2019-05-18T22:43:02.075Z,17.47
2019-05-18T22:45:30.848Z,14.07
2019-05-18T22:47:59.468Z,15.88
2019-05-18T22:50:28.099Z,15.53
2019-05-18T22:53:16.681Z,17.35
2019-05-18T22:55:45.215Z,14.55
2019-05-18T22:58:13.901Z,17.37
2019-05-18T23:00:42.525Z,16.43
2019-05-18T23:03:11.011Z,14.30
2019-05-18T23:05:39.678Z,15.10
2019-05-18T23:08:08.234Z,14.40
2019-05-18T23:10:36.863Z,13.28
2019-05-18T23:13:05.888Z,17.57
2019-05-18T23:15:35.052Z,19.27
2019-05-18T23:18:03.634Z,17.15
2019-05-18T23:20:32.121Z,18.23
2019-05-18T23:23:00.624Z,20.88
2019-05-18T23:25:29.182Z,19.20
2019-05-18T23:27:57.704Z,18.92
2019-05-18T23:30:26.209Z,19.55
2019-05-18T23:32:54.829Z,19.30
2019-05-18T23:35:23.318Z,20.17
2019-05-18T23:37:51.810Z,20.68
2019-05-18T23:40:20.593Z,19.45
2019-05-18T23:42:49.169Z,64.00
2019-05-18T23:45:17.873Z,21.65
2019-05-18T23:47:46.444Z,22.87
2019-05-18T23:50:15.174Z,36.73
2019-05-18T23:52:43.774Z,21.10
2019-05-18T23:55:13.319Z,23.92
2019-05-18T23:57:41.800Z,23.50
